createdAt,value
2016-12-11T00:00:01.959Z,925.53
2016-12-11T00:00:29.886Z,925.54
2016-12-11T00:00:57.830Z,925.51
2016-12-11T00:01:26.099Z,925.51
2016-12-11T00:01:54.080Z,925.5
2016-12-11T00:02:22.287Z,925.53
2016-12-11T00:02:50.468Z,925.45
2016-12-11T00:03:18.629Z,925.46
2016-12-11T00:03:46.798Z,925.49
2016-12-11T00:04:14.887Z,925.49
2016-12-11T00:04:43.219Z,925.45
2016-12-11T00:05:11.205Z,925.47
2016-12-11T00:05:39.164Z,925.48
2016-12-11T00:06:07.338Z,925.44
2016-12-11T00:06:35.284Z,925.48
2016-12-11T00:07:03.391Z,925.45
2016-12-11T00:07:31.636Z,925.45
2016-12-11T00:07:59.487Z,925.51
2016-12-11T00:08:27.533Z,925.48
2016-12-11T00:08:55.587Z,925.51
2016-12-11T00:09:23.720Z,925.52
2016-12-11T00:09:51.677Z,925.56
2016-12-11T00:10:19.877Z,925.56
2016-12-11T00:10:47.760Z,925.56
2016-12-11T00:11:15.861Z,925.58
2016-12-11T00:11:43.995Z,925.6
2016-12-11T00:12:12.308Z,925.66
2016-12-11T00:12:40.715Z,925.66
2016-12-11T00:13:08.964Z,925.62
2016-12-11T00:13:37.290Z,925.65
2016-12-11T00:14:05.354Z,925.69
2016-12-11T00:14:33.423Z,925.66
2016-12-11T00:15:01.407Z,925.66
2016-12-11T00:15:29.506Z,925.65
2016-12-11T00:15:57.639Z,925.65
2016-12-11T00:16:25.689Z,925.65
2016-12-11T00:16:53.687Z,925.65
2016-12-11T00:17:21.585Z,925.64
2016-12-11T00:17:49.788Z,925.67
2016-12-11T00:18:17.858Z,925.66
2016-12-11T00:18:46.130Z,925.65
2016-12-11T00:19:14.152Z,925.66
2016-12-11T00:19:42.316Z,925.66
2016-12-11T00:20:10.416Z,925.7
2016-12-11T00:20:38.613Z,925.71
2016-12-11T00:21:06.667Z,925.71
2016-12-11T00:21:34.668Z,925.71
2016-12-11T00:22:02.784Z,925.74
2016-12-11T00:22:31.024Z,925.76
2016-12-11T00:22:59.093Z,925.76
2016-12-11T00:23:27.302Z,925.74
2016-12-11T00:23:55.638Z,925.75
2016-12-11T00:24:23.655Z,925.77
2016-12-11T00:24:51.917Z,925.75
2016-12-11T00:25:19.892Z,925.74
2016-12-11T00:25:47.935Z,925.73
2016-12-11T00:26:16.033Z,925.72
2016-12-11T00:26:44.224Z,925.74
2016-12-11T00:27:12.216Z,925.73
2016-12-11T00:27:40.661Z,925.71
2016-12-11T00:28:08.756Z,925.76
2016-12-11T00:28:36.941Z,925.72
2016-12-11T00:29:05.201Z,925.76
2016-12-11T00:29:33.228Z,925.74
2016-12-11T00:30:01.186Z,925.73
2016-12-11T00:30:29.258Z,925.75
2016-12-11T00:30:57.267Z,925.75
2016-12-11T00:31:25.511Z,925.77
2016-12-11T00:31:53.676Z,925.76
2016-12-11T00:32:21.830Z,925.74
2016-12-11T00:32:50.000Z,925.73
2016-12-11T00:33:18.137Z,925.73
2016-12-11T00:33:46.248Z,925.71
2016-12-11T00:34:14.406Z,925.71
2016-12-11T00:34:42.511Z,925.72
2016-12-11T00:35:10.552Z,925.69
2016-12-11T00:35:38.815Z,925.7
2016-12-11T00:36:06.995Z,925.67
2016-12-11T00:36:35.045Z,925.71
2016-12-11T00:37:03.437Z,925.68
2016-12-11T00:37:31.763Z,925.66
2016-12-11T00:38:00.105Z,925.7
2016-12-11T00:38:28.162Z,925.71
2016-12-11T00:38:56.130Z,925.73
2016-12-11T00:39:24.345Z,925.68
2016-12-11T00:39:52.502Z,925.72
2016-12-11T00:40:20.631Z,925.74
2016-12-11T00:40:48.768Z,925.75
2016-12-11T00:41:16.900Z,925.74
2016-12-11T00:41:45.136Z,925.74
2016-12-11T00:42:13.318Z,925.78
2016-12-11T00:42:41.509Z,925.77
2016-12-11T00:43:09.716Z,925.76
2016-12-11T00:43:37.907Z,925.78
2016-12-11T00:44:06.004Z,925.73
2016-12-11T00:44:34.285Z,925.78
2016-12-11T00:45:02.586Z,925.78
2016-12-11T00:45:30.717Z,925.8
2016-12-11T00:45:58.991Z,925.81
2016-12-11T00:46:26.981Z,925.76
2016-12-11T00:46:54.930Z,925.71
2016-12-11T00:47:22.924Z,925.72
2016-12-11T00:47:51.083Z,925.72
2016-12-11T00:48:19.063Z,925.69
2016-12-11T00:48:47.166Z,925.69
2016-12-11T00:49:15.236Z,925.68
2016-12-11T00:49:43.396Z,925.65
2016-12-11T00:50:11.383Z,925.68
2016-12-11T00:50:39.543Z,925.68
2016-12-11T00:51:07.550Z,925.65
2016-12-11T00:51:35.707Z,925.65
2016-12-11T00:52:03.860Z,925.64
2016-12-11T00:52:31.971Z,925.6
2016-12-11T00:53:00.113Z,925.64
2016-12-11T00:53:28.146Z,925.64
2016-12-11T00:53:56.368Z,925.64
2016-12-11T00:54:24.367Z,925.66
2016-12-11T00:54:52.314Z,925.69
2016-12-11T00:55:20.366Z,925.64
2016-12-11T00:55:48.451Z,925.68
2016-12-11T00:56:16.733Z,925.65
2016-12-11T00:56:44.728Z,925.68
2016-12-11T00:57:12.872Z,925.68
2016-12-11T00:57:40.962Z,925.64
2016-12-11T00:58:09.111Z,925.63
2016-12-11T00:58:37.278Z,925.65
2016-12-11T00:59:05.359Z,925.66
2016-12-11T00:59:33.353Z,925.62
2016-12-11T01:00:01.522Z,925.66
2016-12-11T01:00:29.638Z,925.65
2016-12-11T01:00:57.793Z,925.65
2016-12-11T01:01:25.766Z,925.68
2016-12-11T01:01:53.993Z,925.66
2016-12-11T01:02:21.991Z,925.66
2016-12-11T01:02:50.249Z,925.65
2016-12-11T01:03:18.527Z,925.66
2016-12-11T01:03:46.764Z,925.64
2016-12-11T01:04:14.936Z,925.62
2016-12-11T01:04:43.016Z,925.63
2016-12-11T01:05:11.175Z,925.65
2016-12-11T01:05:39.312Z,925.66
2016-12-11T01:06:07.581Z,925.67
2016-12-11T01:06:35.800Z,925.66
2016-12-11T01:07:04.026Z,925.69
2016-12-11T01:07:32.305Z,925.66
2016-12-11T01:08:00.397Z,925.62
2016-12-11T01:08:28.673Z,925.64
2016-12-11T01:08:56.921Z,925.65
2016-12-11T01:09:24.993Z,925.66
2016-12-11T01:09:53.155Z,925.66
2016-12-11T01:10:21.268Z,925.63
2016-12-11T01:10:49.506Z,925.64
2016-12-11T01:11:17.481Z,925.64
2016-12-11T01:11:45.615Z,925.62
2016-12-11T01:12:13.525Z,925.64
2016-12-11T01:12:41.676Z,925.61
2016-12-11T01:13:09.908Z,925.58
2016-12-11T01:13:37.917Z,925.63
2016-12-11T01:14:06.100Z,925.58
2016-12-11T01:14:34.126Z,925.59
2016-12-11T01:15:02.424Z,925.59
2016-12-11T01:15:30.569Z,925.6
2016-12-11T01:15:58.813Z,925.62
2016-12-11T01:16:27.010Z,925.61
2016-12-11T01:16:54.915Z,925.62
2016-12-11T01:17:23.182Z,925.6
2016-12-11T01:17:51.231Z,925.61
2016-12-11T01:18:19.404Z,925.63
2016-12-11T01:18:47.434Z,925.6
2016-12-11T01:19:15.578Z,925.58
2016-12-11T01:19:43.716Z,925.58
2016-12-11T01:20:11.480Z,925.53
2016-12-11T01:20:39.658Z,925.54
2016-12-11T01:21:07.714Z,925.52
2016-12-11T01:21:35.730Z,925.55
2016-12-11T01:22:04.010Z,925.51
2016-12-11T01:22:32.159Z,925.54
2016-12-11T01:23:00.323Z,925.54
2016-12-11T01:23:28.481Z,925.55
2016-12-11T01:23:56.603Z,925.53
2016-12-11T01:24:24.633Z,925.55
2016-12-11T01:24:52.715Z,925.56
2016-12-11T01:25:20.927Z,925.56
2016-12-11T01:25:48.908Z,925.56
2016-12-11T01:26:17.060Z,925.52
2016-12-11T01:26:45.022Z,925.53
2016-12-11T01:27:13.005Z,925.55
2016-12-11T01:27:41.147Z,925.49
2016-12-11T01:28:09.310Z,925.51
2016-12-11T01:28:37.468Z,925.55
2016-12-11T01:29:05.443Z,925.53
2016-12-11T01:29:33.493Z,925.57
2016-12-11T01:30:01.681Z,925.56
2016-12-11T01:30:29.752Z,925.53
2016-12-11T01:30:57.813Z,925.52
2016-12-11T01:31:25.862Z,925.47
2016-12-11T01:31:53.776Z,925.47
2016-12-11T01:32:21.783Z,925.43
2016-12-11T01:32:49.963Z,925.47
2016-12-11T01:33:18.277Z,925.45
2016-12-11T01:33:46.519Z,925.46
2016-12-11T01:34:14.707Z,925.43
2016-12-11T01:34:42.783Z,925.52
2016-12-11T01:35:10.866Z,925.52
2016-12-11T01:35:38.710Z,925.55
2016-12-11T01:36:06.727Z,925.54
2016-12-11T01:36:34.777Z,925.51
2016-12-11T01:37:02.867Z,925.53
2016-12-11T01:37:30.914Z,925.53
2016-12-11T01:37:58.901Z,925.53
2016-12-11T01:38:27.091Z,925.55
2016-12-11T01:38:55.056Z,925.57
2016-12-11T01:39:23.271Z,925.58
2016-12-11T01:39:51.361Z,925.63
2016-12-11T01:40:19.610Z,925.62
2016-12-11T01:40:47.767Z,925.63
2016-12-11T01:41:16.060Z,925.61
2016-12-11T01:41:44.148Z,925.62
2016-12-11T01:42:12.375Z,925.62
2016-12-11T01:42:40.435Z,925.62
2016-12-11T01:43:08.631Z,925.66
2016-12-11T01:43:36.606Z,925.63
2016-12-11T01:44:04.488Z,925.62
2016-12-11T01:44:32.466Z,925.63
2016-12-11T01:45:00.609Z,925.6
2016-12-11T01:45:28.757Z,925.59
2016-12-11T01:45:56.865Z,925.57
2016-12-11T01:46:25.119Z,925.56
2016-12-11T01:46:53.274Z,925.55
2016-12-11T01:47:21.212Z,925.56
2016-12-11T01:47:49.265Z,925.57
2016-12-11T01:48:17.113Z,925.61
2016-12-11T01:48:45.567Z,925.59
2016-12-11T01:49:13.644Z,925.58
2016-12-11T01:49:41.706Z,925.57
2016-12-11T01:50:09.831Z,925.61
2016-12-11T01:50:37.970Z,925.55
2016-12-11T01:51:05.866Z,925.58
2016-12-11T01:51:34.115Z,925.54
2016-12-11T01:52:02.348Z,925.57
2016-12-11T01:52:30.217Z,925.58
2016-12-11T01:52:58.202Z,925.58
2016-12-11T01:53:26.424Z,925.58
2016-12-11T01:53:54.624Z,925.58
2016-12-11T01:54:22.763Z,925.56
2016-12-11T01:54:50.923Z,925.52
2016-12-11T01:55:18.911Z,925.53
2016-12-11T01:55:47.008Z,925.53
2016-12-11T01:56:15.221Z,925.53
2016-12-11T01:56:43.387Z,925.49
2016-12-11T01:57:11.539Z,925.52
2016-12-11T01:57:39.719Z,925.45
2016-12-11T01:58:07.666Z,925.46
2016-12-11T01:58:35.836Z,925.44
2016-12-11T01:59:03.583Z,925.41
2016-12-11T01:59:31.691Z,925.45
2016-12-11T01:59:59.811Z,925.42
2016-12-11T02:00:27.983Z,925.41
2016-12-11T02:00:56.216Z,925.47
2016-12-11T02:01:24.484Z,925.46
2016-12-11T02:01:52.598Z,925.47
2016-12-11T02:02:20.857Z,925.48
2016-12-11T02:02:49.036Z,925.51
2016-12-11T02:03:17.192Z,925.49
2016-12-11T02:03:45.429Z,925.44
2016-12-11T02:04:13.555Z,925.47
2016-12-11T02:04:41.720Z,925.46
2016-12-11T02:05:09.874Z,925.47
2016-12-11T02:05:37.972Z,925.47
2016-12-11T02:06:06.274Z,925.47
2016-12-11T02:06:34.583Z,925.47
2016-12-11T02:07:02.841Z,925.46
2016-12-11T02:07:31.082Z,925.45
2016-12-11T02:07:59.243Z,925.47
2016-12-11T02:08:27.293Z,925.44
2016-12-11T02:08:55.677Z,925.43
2016-12-11T02:09:23.928Z,925.43
2016-12-11T02:09:51.840Z,925.44
2016-12-11T02:10:19.963Z,925.38
2016-12-11T02:10:48.096Z,925.39
2016-12-11T02:11:16.183Z,925.36
2016-12-11T02:11:44.438Z,925.32
2016-12-11T02:12:12.449Z,925.36
2016-12-11T02:12:40.617Z,925.33
2016-12-11T02:13:08.811Z,925.34
2016-12-11T02:13:37.083Z,925.32
2016-12-11T02:14:05.324Z,925.3
2016-12-11T02:14:33.228Z,925.25
2016-12-11T02:15:01.465Z,925.23
2016-12-11T02:15:29.664Z,925.24
2016-12-11T02:15:57.797Z,925.25
2016-12-11T02:16:25.967Z,925.22
2016-12-11T02:16:54.240Z,925.21
2016-12-11T02:17:22.474Z,925.23
2016-12-11T02:17:50.478Z,925.21
2016-12-11T02:18:18.657Z,925.22
2016-12-11T02:18:47.213Z,925.17
2016-12-11T02:19:15.295Z,925.2
2016-12-11T02:19:43.374Z,925.25
2016-12-11T02:20:11.488Z,925.24
2016-12-11T02:20:39.663Z,925.22
2016-12-11T02:21:07.730Z,925.23
2016-12-11T02:21:35.765Z,925.21
2016-12-11T02:22:03.949Z,925.19
2016-12-11T02:22:32.260Z,925.15
2016-12-11T02:23:00.102Z,925.14
2016-12-11T02:23:28.275Z,925.15
2016-12-11T02:23:56.416Z,925.15
2016-12-11T02:24:24.667Z,925.21
2016-12-11T02:24:53.068Z,925.18
2016-12-11T02:25:21.144Z,925.19
2016-12-11T02:25:49.263Z,925.15
2016-12-11T02:26:17.324Z,925.19
2016-12-11T02:26:45.427Z,925.19
2016-12-11T02:27:13.598Z,925.18
2016-12-11T02:27:41.833Z,925.15
2016-12-11T02:28:10.107Z,925.13
2016-12-11T02:28:38.093Z,925.16
2016-12-11T02:29:06.567Z,925.2
2016-12-11T02:29:34.602Z,925.1
2016-12-11T02:30:02.869Z,925.17
2016-12-11T02:30:31.247Z,925.12
2016-12-11T02:30:59.268Z,925.11
2016-12-11T02:31:27.458Z,925.06
2016-12-11T02:31:55.797Z,925.06
2016-12-11T02:32:24.016Z,925.05
2016-12-11T02:32:52.225Z,925.01
2016-12-11T02:33:20.439Z,925.02
2016-12-11T02:33:48.825Z,925.01
2016-12-11T02:34:17.057Z,925.02
2016-12-11T02:34:45.447Z,925.01
2016-12-11T02:35:13.619Z,924.98
2016-12-11T02:35:41.636Z,925
2016-12-11T02:36:09.591Z,924.96
2016-12-11T02:36:37.858Z,924.98
2016-12-11T02:37:05.891Z,925.01
2016-12-11T02:37:33.953Z,924.94
2016-12-11T02:38:02.098Z,924.99
2016-12-11T02:38:30.163Z,925.02
2016-12-11T02:38:58.475Z,924.99
2016-12-11T02:39:26.676Z,924.96
2016-12-11T02:39:54.740Z,924.96
2016-12-11T02:40:22.944Z,924.97
2016-12-11T02:40:50.983Z,924.96
2016-12-11T02:41:19.182Z,924.94
2016-12-11T02:41:47.508Z,924.9
2016-12-11T02:42:15.587Z,924.93
2016-12-11T02:42:43.667Z,924.92
2016-12-11T02:43:11.732Z,924.93
2016-12-11T02:43:40.101Z,924.88
2016-12-11T02:44:08.236Z,924.81
2016-12-11T02:44:36.414Z,924.84
2016-12-11T02:45:04.635Z,924.84
2016-12-11T02:45:32.732Z,924.83
2016-12-11T02:46:00.892Z,924.82
2016-12-11T02:46:28.924Z,924.79
2016-12-11T02:46:56.980Z,924.82
2016-12-11T02:47:25.017Z,924.83
2016-12-11T02:47:53.124Z,924.82
2016-12-11T02:48:21.350Z,924.8
2016-12-11T02:48:49.497Z,924.86
2016-12-11T02:49:17.776Z,924.83
2016-12-11T02:49:45.847Z,924.83
2016-12-11T02:50:14.056Z,924.84
2016-12-11T02:50:42.384Z,924.78
2016-12-11T02:51:10.365Z,924.81
2016-12-11T02:51:38.518Z,924.81
2016-12-11T02:52:06.857Z,924.77
2016-12-11T02:52:34.817Z,924.77
2016-12-11T02:53:02.683Z,924.76
2016-12-11T02:53:30.932Z,924.77
2016-12-11T02:53:59.347Z,924.73
2016-12-11T02:54:27.679Z,924.74
2016-12-11T02:54:55.849Z,924.69
2016-12-11T02:55:24.088Z,924.67
2016-12-11T02:55:52.301Z,924.65
2016-12-11T02:56:20.393Z,924.63
2016-12-11T02:56:48.394Z,924.61
2016-12-11T02:57:16.722Z,924.6
2016-12-11T02:57:44.790Z,924.6
2016-12-11T02:58:13.055Z,924.57
2016-12-11T02:58:41.072Z,924.6
2016-12-11T02:59:09.252Z,924.59
2016-12-11T02:59:37.677Z,924.56
2016-12-11T03:00:05.887Z,924.5
2016-12-11T03:00:33.993Z,924.55
2016-12-11T03:01:02.087Z,924.51
2016-12-11T03:01:30.168Z,924.52
2016-12-11T03:01:58.427Z,924.49
2016-12-11T03:02:26.621Z,924.45
2016-12-11T03:02:54.692Z,924.45
2016-12-11T03:03:22.967Z,924.42
2016-12-11T03:03:51.323Z,924.44
2016-12-11T03:04:19.613Z,924.46
2016-12-11T03:04:47.812Z,924.43
2016-12-11T03:05:15.835Z,924.42
2016-12-11T03:05:43.975Z,924.37
2016-12-11T03:06:12.124Z,924.4
2016-12-11T03:06:40.482Z,924.42
2016-12-11T03:07:08.483Z,924.37
2016-12-11T03:07:36.676Z,924.41
2016-12-11T03:08:04.736Z,924.41
2016-12-11T03:08:32.933Z,924.42
2016-12-11T03:09:01.148Z,924.41
2016-12-11T03:09:29.349Z,924.4
2016-12-11T03:09:57.517Z,924.4
2016-12-11T03:10:25.877Z,924.33
2016-12-11T03:10:53.956Z,924.39
2016-12-11T03:11:22.090Z,924.36
2016-12-11T03:11:50.429Z,924.34
2016-12-11T03:12:18.576Z,924.31
2016-12-11T03:12:46.892Z,924.34
2016-12-11T03:13:15.096Z,924.31
2016-12-11T03:13:42.978Z,924.28
2016-12-11T03:14:11.157Z,924.27
2016-12-11T03:14:39.397Z,924.26
2016-12-11T03:15:07.567Z,924.25
2016-12-11T03:15:35.653Z,924.24
2016-12-11T03:16:03.885Z,924.21
2016-12-11T03:16:32.052Z,924.16
2016-12-11T03:17:00.282Z,924.17
2016-12-11T03:17:28.517Z,924.22
2016-12-11T03:17:56.599Z,924.23
2016-12-11T03:18:24.597Z,924.19
2016-12-11T03:18:52.839Z,924.19
2016-12-11T03:19:20.985Z,924.2
2016-12-11T03:19:49.088Z,924.17
2016-12-11T03:20:17.211Z,924.19
2016-12-11T03:20:45.390Z,924.21
2016-12-11T03:21:13.529Z,924.22
2016-12-11T03:21:41.769Z,924.21
2016-12-11T03:22:09.942Z,924.22
2016-12-11T03:22:38.112Z,924.21
2016-12-11T03:23:06.255Z,924.26
2016-12-11T03:23:34.296Z,924.26
2016-12-11T03:24:02.453Z,924.27
2016-12-11T03:24:30.677Z,924.24
2016-12-11T03:24:59.161Z,924.28
2016-12-11T03:25:27.290Z,924.28
2016-12-11T03:25:55.365Z,924.31
2016-12-11T03:26:23.364Z,924.33
2016-12-11T03:26:51.641Z,924.33
2016-12-11T03:27:19.748Z,924.33
2016-12-11T03:27:47.822Z,924.23
2016-12-11T03:28:15.907Z,924.28
2016-12-11T03:28:43.886Z,924.29
2016-12-11T03:29:11.965Z,924.25
2016-12-11T03:29:40.171Z,924.29
2016-12-11T03:30:08.237Z,924.28
2016-12-11T03:30:36.644Z,924.3
2016-12-11T03:31:04.960Z,924.28
2016-12-11T03:31:33.152Z,924.29
2016-12-11T03:32:01.412Z,924.31
2016-12-11T03:32:29.539Z,924.22
2016-12-11T03:32:57.666Z,924.29
2016-12-11T03:33:26.002Z,924.26
2016-12-11T03:33:54.255Z,924.29
2016-12-11T03:34:22.323Z,924.29
2016-12-11T03:34:50.719Z,924.32
2016-12-11T03:35:18.868Z,924.34
2016-12-11T03:35:46.935Z,924.33
2016-12-11T03:36:15.048Z,924.34
2016-12-11T03:36:43.566Z,924.31
2016-12-11T03:37:11.772Z,924.32
2016-12-11T03:37:39.972Z,924.32
2016-12-11T03:38:08.164Z,924.29
2016-12-11T03:38:36.202Z,924.3
2016-12-11T03:39:04.284Z,924.27
2016-12-11T03:39:32.438Z,924.3
2016-12-11T03:40:00.916Z,924.27
2016-12-11T03:40:29.169Z,924.22
2016-12-11T03:40:57.132Z,924.25
2016-12-11T03:41:25.283Z,924.22
2016-12-11T03:41:53.830Z,924.17
2016-12-11T03:42:21.985Z,924.21
2016-12-11T03:42:50.256Z,924.19
2016-12-11T03:43:18.473Z,924.21
2016-12-11T03:43:46.608Z,924.24
2016-12-11T03:44:14.816Z,924.18
2016-12-11T03:44:43.175Z,924.15
2016-12-11T03:45:11.183Z,924.22
2016-12-11T03:45:39.414Z,924.21
2016-12-11T03:46:07.537Z,924.2
2016-12-11T03:46:35.706Z,924.25
2016-12-11T03:47:03.918Z,924.24
2016-12-11T03:47:32.088Z,924.27
2016-12-11T03:48:00.278Z,924.25
2016-12-11T03:48:28.437Z,924.24
2016-12-11T03:48:56.638Z,924.25
2016-12-11T03:49:24.664Z,924.25
2016-12-11T03:49:52.939Z,924.22
2016-12-11T03:50:21.292Z,924.3
2016-12-11T03:50:49.449Z,924.29
2016-12-11T03:51:17.642Z,924.29
2016-12-11T03:51:45.762Z,924.31
2016-12-11T03:52:13.969Z,924.3
2016-12-11T03:52:42.149Z,924.36
2016-12-11T03:53:10.296Z,924.35
2016-12-11T03:53:38.357Z,924.35
2016-12-11T03:54:06.653Z,924.31
2016-12-11T03:54:34.741Z,924.3
2016-12-11T03:55:02.975Z,924.32
2016-12-11T03:55:31.533Z,924.3
2016-12-11T03:55:59.709Z,924.3
2016-12-11T03:56:27.867Z,924.29
2016-12-11T03:56:55.959Z,924.26
2016-12-11T03:57:24.353Z,924.23
2016-12-11T03:57:52.524Z,924.28
2016-12-11T03:58:20.788Z,924.26
2016-12-11T03:58:48.970Z,924.25
2016-12-11T03:59:17.280Z,924.18
2016-12-11T03:59:45.162Z,924.18
2016-12-11T04:00:13.642Z,924.18
2016-12-11T04:00:41.722Z,924.2
2016-12-11T04:01:09.795Z,924.17
2016-12-11T04:01:38.043Z,924.16
2016-12-11T04:02:06.435Z,924.14
2016-12-11T04:02:34.616Z,924.16
2016-12-11T04:03:02.710Z,924.15
2016-12-11T04:03:30.995Z,924.2
2016-12-11T04:03:59.057Z,924.19
2016-12-11T04:04:27.195Z,924.15
2016-12-11T04:04:55.335Z,924.18
2016-12-11T04:05:23.719Z,924.13
2016-12-11T04:05:51.766Z,924.08
2016-12-11T04:06:20.073Z,924.09
2016-12-11T04:06:48.135Z,924.08
2016-12-11T04:07:16.250Z,924.04
2016-12-11T04:07:44.397Z,924.04
2016-12-11T04:08:12.646Z,924.02
2016-12-11T04:08:40.639Z,924.02
2016-12-11T04:09:08.784Z,924.02
2016-12-11T04:09:37.014Z,924.01
2016-12-11T04:10:04.975Z,924
2016-12-11T04:10:33.311Z,924.03
2016-12-11T04:11:01.506Z,923.99
2016-12-11T04:11:29.617Z,924.02
2016-12-11T04:11:57.811Z,924.05
2016-12-11T04:12:25.802Z,923.98
2016-12-11T04:12:54.021Z,924.05
2016-12-11T04:13:22.196Z,923.97
2016-12-11T04:13:50.318Z,923.96
2016-12-11T04:14:18.350Z,923.98
2016-12-11T04:14:46.369Z,923.94
2016-12-11T04:15:14.521Z,923.96
2016-12-11T04:15:42.772Z,923.98
2016-12-11T04:16:10.842Z,923.97
2016-12-11T04:16:39.029Z,924.02
2016-12-11T04:17:07.164Z,924
2016-12-11T04:17:35.334Z,923.99
2016-12-11T04:18:03.696Z,923.98
2016-12-11T04:18:31.750Z,923.95
2016-12-11T04:18:59.713Z,923.94
2016-12-11T04:19:27.874Z,923.98
2016-12-11T04:19:56.056Z,924.01
2016-12-11T04:20:24.311Z,923.92
2016-12-11T04:20:52.380Z,923.96
2016-12-11T04:21:20.577Z,923.95
2016-12-11T04:21:48.843Z,923.97
2016-12-11T04:22:17.103Z,923.97
2016-12-11T04:22:45.335Z,923.97
2016-12-11T04:23:13.529Z,924
2016-12-11T04:23:41.790Z,923.97
2016-12-11T04:24:09.816Z,924
2016-12-11T04:24:37.869Z,923.77
2016-12-11T04:25:05.859Z,923.94
2016-12-11T04:25:34.193Z,923.98
2016-12-11T04:26:02.202Z,923.96
2016-12-11T04:26:30.150Z,923.97
2016-12-11T04:26:58.228Z,923.96
2016-12-11T04:27:26.447Z,923.93
2016-12-11T04:27:54.581Z,924
2016-12-11T04:28:22.771Z,923.96
2016-12-11T04:28:51.044Z,923.99
2016-12-11T04:29:19.133Z,923.98
2016-12-11T04:29:47.287Z,923.98
2016-12-11T04:30:15.383Z,923.97
2016-12-11T04:30:43.637Z,924.03
2016-12-11T04:31:11.924Z,924.03
2016-12-11T04:31:39.978Z,924.02
2016-12-11T04:32:08.035Z,923.99
2016-12-11T04:32:36.150Z,924.06
2016-12-11T04:33:04.315Z,923.96
2016-12-11T04:33:32.369Z,923.95
2016-12-11T04:34:00.567Z,923.92
2016-12-11T04:34:28.793Z,923.93
2016-12-11T04:34:56.941Z,923.86
2016-12-11T04:35:25.082Z,923.85
2016-12-11T04:35:53.516Z,923.81
2016-12-11T04:36:21.521Z,923.81
2016-12-11T04:36:49.553Z,923.86
2016-12-11T04:37:17.780Z,923.85
2016-12-11T04:37:45.860Z,923.84
2016-12-11T04:38:14.013Z,923.81
2016-12-11T04:38:42.092Z,923.85
2016-12-11T04:39:10.189Z,923.8
2016-12-11T04:39:38.580Z,923.8
2016-12-11T04:40:06.827Z,923.81
2016-12-11T04:40:35.125Z,923.8
2016-12-11T04:41:03.285Z,923.78
2016-12-11T04:41:31.472Z,923.8
2016-12-11T04:41:59.530Z,923.79
2016-12-11T04:42:27.694Z,923.76
2016-12-11T04:42:55.750Z,923.83
2016-12-11T04:43:23.660Z,923.81
2016-12-11T04:43:51.785Z,923.76
2016-12-11T04:44:19.773Z,923.75
2016-12-11T04:44:47.971Z,923.75
2016-12-11T04:45:16.377Z,923.71
2016-12-11T04:45:44.551Z,923.79
2016-12-11T04:46:12.464Z,923.75
2016-12-11T04:46:40.695Z,923.71
2016-12-11T04:47:08.663Z,923.78
2016-12-11T04:47:36.713Z,923.73
2016-12-11T04:48:04.944Z,923.75
2016-12-11T04:48:32.939Z,923.74
2016-12-11T04:49:01.076Z,923.72
2016-12-11T04:49:29.049Z,923.78
2016-12-11T04:49:57.039Z,923.7
2016-12-11T04:50:25.007Z,923.7
2016-12-11T04:50:53.240Z,923.74
2016-12-11T04:51:21.262Z,923.68
2016-12-11T04:51:49.442Z,923.72
2016-12-11T04:52:17.543Z,923.7
2016-12-11T04:52:45.641Z,923.71
2016-12-11T04:53:13.871Z,923.74
2016-12-11T04:53:42.035Z,923.74
2016-12-11T04:54:10.288Z,923.74
2016-12-11T04:54:38.506Z,923.71
2016-12-11T04:55:06.672Z,923.74
2016-12-11T04:55:34.852Z,923.79
2016-12-11T04:56:03.358Z,923.76
2016-12-11T04:56:31.360Z,923.77
2016-12-11T04:56:59.339Z,923.78
2016-12-11T04:57:27.623Z,923.75
2016-12-11T04:57:55.812Z,923.78
2016-12-11T04:58:23.915Z,923.71
2016-12-11T04:58:51.926Z,923.73
2016-12-11T04:59:20.127Z,923.73
2016-12-11T04:59:48.276Z,923.78
2016-12-11T05:00:16.397Z,923.71
2016-12-11T05:00:44.476Z,923.76
2016-12-11T05:01:12.587Z,923.75
2016-12-11T05:01:40.726Z,923.77
2016-12-11T05:02:08.817Z,923.7
2016-12-11T05:02:37.092Z,923.68
2016-12-11T05:03:05.163Z,923.72
2016-12-11T05:03:33.135Z,923.77
2016-12-11T05:04:01.189Z,923.72
2016-12-11T05:04:29.379Z,923.64
2016-12-11T05:04:57.549Z,923.7
2016-12-11T05:05:25.718Z,923.63
2016-12-11T05:05:53.738Z,923.67
2016-12-11T05:06:21.887Z,923.67
2016-12-11T05:06:49.967Z,923.71
2016-12-11T05:07:18.137Z,923.67
2016-12-11T05:07:46.288Z,923.73
2016-12-11T05:08:14.273Z,923.72
2016-12-11T05:08:42.526Z,923.76
2016-12-11T05:09:10.740Z,923.74
2016-12-11T05:09:38.948Z,923.7
2016-12-11T05:10:07.308Z,923.71
2016-12-11T05:10:35.522Z,923.72
2016-12-11T05:11:03.926Z,923.7
2016-12-11T05:11:32.258Z,923.7
2016-12-11T05:12:00.435Z,923.74
2016-12-11T05:12:28.623Z,923.67
2016-12-11T05:12:56.871Z,923.69
2016-12-11T05:13:25.226Z,923.72
2016-12-11T05:13:53.268Z,923.71
2016-12-11T05:14:21.394Z,923.69
2016-12-11T05:14:49.626Z,923.71
2016-12-11T05:15:17.881Z,923.65
2016-12-11T05:15:46.182Z,923.7
2016-12-11T05:16:14.238Z,923.7
2016-12-11T05:16:42.267Z,923.68
2016-12-11T05:17:10.353Z,923.65
2016-12-11T05:17:38.523Z,923.63
2016-12-11T05:18:06.606Z,923.66
2016-12-11T05:18:34.806Z,923.67
2016-12-11T05:19:03.110Z,923.69
2016-12-11T05:19:31.317Z,923.66
2016-12-11T05:19:59.721Z,923.62
2016-12-11T05:20:27.718Z,923.58
2016-12-11T05:20:55.983Z,923.55
2016-12-11T05:21:24.063Z,923.56
2016-12-11T05:21:52.347Z,923.56
2016-12-11T05:22:20.503Z,923.57
2016-12-11T05:22:48.559Z,923.57
2016-12-11T05:23:16.922Z,923.59
2016-12-11T05:23:45.088Z,923.6
2016-12-11T05:24:13.227Z,923.57
2016-12-11T05:24:41.161Z,923.61
2016-12-11T05:25:09.411Z,923.58
2016-12-11T05:25:37.653Z,923.54
2016-12-11T05:26:05.723Z,923.62
2016-12-11T05:26:34.000Z,923.62
2016-12-11T05:27:02.290Z,923.54
2016-12-11T05:27:30.267Z,923.54
2016-12-11T05:27:58.307Z,923.53
2016-12-11T05:28:26.612Z,923.48
2016-12-11T05:28:54.871Z,923.47
2016-12-11T05:29:23.037Z,923.48
2016-12-11T05:29:51.262Z,923.5
2016-12-11T05:30:19.466Z,923.48
2016-12-11T05:30:47.598Z,923.51
2016-12-11T05:31:15.830Z,923.52
2016-12-11T05:31:44.045Z,923.44
2016-12-11T05:32:12.149Z,923.41
2016-12-11T05:32:40.497Z,923.5
2016-12-11T05:33:08.648Z,923.52
2016-12-11T05:33:36.875Z,923.54
2016-12-11T05:34:04.925Z,923.56
2016-12-11T05:34:33.102Z,923.54
2016-12-11T05:35:01.137Z,923.59
2016-12-11T05:35:29.445Z,923.6
2016-12-11T05:35:57.649Z,923.55
2016-12-11T05:36:25.816Z,923.51
2016-12-11T05:36:53.995Z,923.52
2016-12-11T05:37:22.141Z,923.5
2016-12-11T05:37:50.257Z,923.48
2016-12-11T05:38:18.279Z,923.5
2016-12-11T05:38:46.433Z,923.5
2016-12-11T05:39:14.726Z,923.52
2016-12-11T05:39:42.990Z,923.45
2016-12-11T05:40:11.167Z,923.5
2016-12-11T05:40:39.195Z,923.46
2016-12-11T05:41:07.374Z,923.49
2016-12-11T05:41:35.436Z,923.41
2016-12-11T05:42:03.725Z,923.43
2016-12-11T05:42:31.785Z,923.46
2016-12-11T05:42:59.920Z,923.47
2016-12-11T05:43:28.048Z,923.46
2016-12-11T05:43:56.105Z,923.45
2016-12-11T05:44:24.156Z,923.5
2016-12-11T05:44:52.440Z,923.43
2016-12-11T05:45:20.530Z,923.44
2016-12-11T05:45:48.619Z,923.48
2016-12-11T05:46:16.745Z,923.48
2016-12-11T05:46:44.929Z,923.47
2016-12-11T05:47:13.213Z,923.47
2016-12-11T05:47:41.274Z,923.45
2016-12-11T05:48:09.434Z,923.46
2016-12-11T05:48:37.701Z,923.44
2016-12-11T05:49:05.846Z,923.44
2016-12-11T05:49:33.988Z,923.5
2016-12-11T05:50:02.154Z,923.45
2016-12-11T05:50:30.314Z,923.44
2016-12-11T05:50:58.451Z,923.44
2016-12-11T05:51:26.803Z,923.5
2016-12-11T05:51:54.917Z,923.46